Terminal Aerodrome Forecast
Issued by NWS

Home | Current Version | Previous Version | Graphics & Text | Print | Product List | Glossary On
Versions: 1 2 3 4 5 6 7 8 9 10 11 12 13 14 15 16 17 18 19 20 21 22 23 24 25 26 27 28
347
FTUS43 KLSX 300305 AAA
TAFSUS
TAF AMD
KSUS 300305Z 3003/3024 10012KT P6SM VCTS SCT025CB BKN060
     FM300400 13012KT 5SM -SHRA VCTS OVC025CB
      TEMPO 3005/3008 2SM TSRA OVC015CB
     FM301100 16006KT P6SM VCSH OVC015
     FM301600 17013KT 5SM -SHRA VCTS BKN040CB
     FM302000 21008KT P6SM -SHRA VCTS BKN040CB=

USA.gov is the U.S. government's official web portal to all federal, state and local government web resources and services.